Time;durP1;ratioP1;P1;durP2;ratioP2;P2;SDS_P1;SDS_P2;PMS_P1;PMS_P2;Temp;Humidity;BMP_temperature;BMP_pressure;BME280_temperature;BME280_humidity;BME280_pressure;Samples;Min_cycle;Max_cycle;Signal;HPM_P1;HPM_P2
2023/12/19 00:00:47;;;;;;;8.45;1.55;;;;;;;7.26;100.00;100702.31;5010435;28;20050;-64
2023/12/19 00:03:14;;;;;;;4.88;1.50;;;;;;;7.29;100.00;100700.50;4998977;28;20050;-64
2023/12/19 00:05:41;;;;;;;7.07;2.05;;;;;;;7.25;100.00;100703.25;5010529;28;20677;-64
2023/12/19 00:08:08;;;;;;;4.45;1.27;;;;;;;7.24;100.00;100699.75;5008910;28;20588;-64
2023/12/19 00:10:34;;;;;;;7.60;2.33;;;;;;;7.23;100.00;100706.72;5007954;28;20085;-63
2023/12/19 00:13:02;;;;;;;8.43;1.88;;;;;;;7.19;100.00;100696.44;5010506;28;20050;-63
2023/12/19 00:15:29;;;;;;;3.20;1.30;;;;;;;7.15;100.00;100702.59;5009938;28;20042;-63
2023/12/19 00:17:56;;;;;;;4.03;1.38;;;;;;;7.15;100.00;100706.06;5010264;28;20403;-63
2023/12/19 00:20:23;;;;;;;5.22;1.65;;;;;;;7.02;100.00;100699.44;5009725;28;20545;-66
2023/12/19 00:22:49;;;;;;;7.70;1.67;;;;;;;6.91;100.00;100685.81;5011314;28;20050;-63
2023/12/19 00:25:16;;;;;;;4.60;1.55;;;;;;;6.95;100.00;100696.09;5010648;28;20514;-65
2023/12/19 00:27:43;;;;;;;5.38;1.50;;;;;;;6.93;100.00;100690.09;4984727;28;20045;-66
2023/12/19 00:30:10;;;;;;;5.70;1.50;;;;;;;6.96;100.00;100689.16;5007600;28;20523;-66
2023/12/19 00:32:37;;;;;;;7.45;1.70;;;;;;;7.06;100.00;100687.19;5010623;28;20050;-64
2023/12/19 00:35:04;;;;;;;4.15;1.52;;;;;;;7.04;100.00;100688.06;5010880;28;20050;-64
2023/12/19 00:37:31;;;;;;;6.07;1.55;;;;;;;7.06;100.00;100685.44;5006631;28;20045;-65
2023/12/19 00:39:58;;;;;;;5.95;1.63;;;;;;;7.06;100.00;100687.19;5002018;28;20049;-64
2023/12/19 00:42:24;;;;;;;6.18;1.77;;;;;;;7.06;100.00;100698.44;5007921;28;20420;-65
2023/12/19 00:44:51;;;;;;;6.22;1.63;;;;;;;7.10;100.00;100696.63;5010595;28;20050;-65
2023/12/19 00:47:18;;;;;;;9.80;1.55;;;;;;;6.71;100.00;100679.31;5009597;28;20062;-65
2023/12/19 00:49:44;;;;;;;7.53;1.42;;;;;;;6.72;100.00;100700.97;5010292;28;20050;-65
2023/12/19 00:52:11;;;;;;;6.00;1.85;;;;;;;6.77;100.00;100688.72;5009641;28;20081;-65
2023/12/19 00:54:38;;;;;;;6.20;2.40;;;;;;;6.78;100.00;100691.31;5010436;28;20057;-63
2023/12/19 00:57:05;;;;;;;3.47;1.30;;;;;;;6.74;100.00;100689.63;5000149;28;20408;-63
2023/12/19 00:59:31;;;;;;;5.47;1.77;;;;;;;6.71;100.00;100696.66;5004255;28;20060;-63
2023/12/19 01:01:58;;;;;;;6.70;1.58;;;;;;;6.67;100.00;100684.63;5007372;28;20467;-65
2023/12/19 01:04:25;;;;;;;6.80;1.70;;;;;;;6.64;100.00;100690.75;5008595;28;20057;-65
2023/12/19 01:06:52;;;;;;;5.43;1.77;;;;;;;6.57;100.00;100689.16;5006120;28;20451;-63
2023/12/19 01:09:18;;;;;;;6.13;1.60;;;;;;;6.53;100.00;100693.56;5010520;28;20052;-63
2023/12/19 01:11:45;;;;;;;4.80;1.50;;;;;;;6.60;100.00;100691.69;5009126;28;20053;-64
2023/12/19 01:14:12;;;;;;;9.77;1.58;;;;;;;6.55;100.00;100697.00;5009411;28;20089;-63
2023/12/19 01:16:39;;;;;;;7.93;1.77;;;;;;;6.56;100.00;100688.31;5004470;28;20408;-64
2023/12/19 01:19:09;;;;;;;4.85;1.67;;;;;;;6.53;100.00;100696.16;5009706;28;20053;-64
2023/12/19 01:21:37;;;;;;;6.95;1.70;;;;;;;6.38;100.00;100688.72;5005743;28;20053;-64
2023/12/19 01:24:04;;;;;;;7.85;1.70;;;;;;;6.45;100.00;100687.69;5009401;28;20483;-64
2023/12/19 01:26:32;;;;;;;5.35;1.58;;;;;;;6.40;100.00;100674.78;4987778;28;20046;-64
2023/12/19 01:28:59;;;;;;;8.75;1.90;;;;;;;6.41;100.00;100680.81;5006602;28;20058;-64
2023/12/19 01:31:25;;;;;;;6.43;1.70;;;;;;;6.50;100.00;100685.84;5008418;28;20293;-65
2023/12/19 01:33:53;;;;;;;5.07;1.48;;;;;;;6.60;100.00;100695.13;5008908;28;20054;-63
2023/12/19 01:36:20;;;;;;;6.97;1.65;;;;;;;6.53;100.00;100693.56;4998890;28;20077;-63
2023/12/19 01:38:47;;;;;;;9.68;2.13;;;;;;;6.49;100.00;100693.69;5003370;28;20058;-64
2023/12/19 01:41:14;;;;;;;11.00;2.97;;;;;;;6.52;100.00;100704.88;5007386;28;20414;-65
2023/12/19 01:43:41;;;;;;;5.63;1.60;;;;;;;6.49;100.00;100702.34;5009380;28;20057;-63
2023/12/19 01:46:15;;;;;;;7.15;1.95;;;;;;;6.42;100.00;100692.94;5009289;28;20522;-66
2023/12/19 01:48:42;;;;;;;8.05;1.52;;;;;;;6.34;100.00;100669.72;5001830;28;20049;-63
2023/12/19 01:51:11;;;;;;;5.15;1.40;;;;;;;6.31;100.00;100681.94;5004926;28;20479;-65
2023/12/19 01:53:41;;;;;;;6.00;1.40;;;;;;;6.28;100.00;100680.22;4999600;28;20104;-64
2023/12/19 01:56:08;;;;;;;4.85;1.40;;;;;;;6.14;100.00;100656.25;4999316;28;20491;-64
2023/12/19 01:58:36;;;;;;;5.03;1.40;;;;;;;6.21;100.00;100676.03;4999324;28;20126;-65
2023/12/19 02:01:05;;;;;;;6.47;1.55;;;;;;;6.06;100.00;100685.03;4999160;28;20057;-65
2023/12/19 02:03:32;;;;;;;8.40;1.70;;;;;;;5.92;100.00;100679.22;5005949;28;20077;-65
2023/12/19 02:06:00;;;;;;;5.40;1.50;;;;;;;5.92;100.00;100687.00;5009479;28;20054;-65
2023/12/19 02:08:27;;;;;;;5.95;1.52;;;;;;;5.82;100.00;100681.94;4977221;28;20054;-65
2023/12/19 02:10:54;;;;;;;5.97;1.65;;;;;;;5.89;100.00;100680.09;5008156;28;20095;-65
2023/12/19 02:13:21;;;;;;;6.10;1.60;;;;;;;5.85;100.00;100661.13;5009141;28;20050;-65
2023/12/19 02:15:48;;;;;;;6.82;1.55;;;;;;;5.86;100.00;100665.44;5009373;28;20065;-65
2023/12/19 02:18:16;;;;;;;4.30;1.52;;;;;;;5.91;100.00;100667.94;5004267;28;20050;-65
2023/12/19 02:20:42;;;;;;;4.97;1.75;;;;;;;5.84;100.00;100651.63;5007553;28;20054;-65
2023/12/19 02:23:13;;;;;;;9.25;1.70;;;;;;;5.86;100.00;100657.66;5009244;28;20069;-64
2023/12/19 02:25:40;;;;;;;5.10;1.50;;;;;;;5.84;100.00;100651.63;4991244;28;20050;-65
2023/12/19 02:28:08;;;;;;;3.97;1.33;;;;;;;5.75;100.00;100643.97;5003634;28;20174;-65
2023/12/19 02:30:35;;;;;;;3.85;1.30;;;;;;;5.82;100.00;100649.94;5005914;28;20488;-65
2023/12/19 02:33:02;;;;;;;3.78;1.55;;;;;;;5.78;100.00;100643.09;5010642;28;20100;-65
2023/12/19 02:35:29;;;;;;;5.45;1.52;;;;;;;5.57;100.00;100633.97;4995732;28;20062;-64
2023/12/19 02:37:56;;;;;;;4.85;1.55;;;;;;;5.54;100.00;100628.81;5005845;28;20050;-64
2023/12/19 02:40:23;;;;;;;3.88;1.45;;;;;;;5.54;100.00;100632.25;5010487;28;20053;-64
2023/12/19 02:42:50;;;;;;;5.03;1.50;;;;;;;5.46;100.00;100634.16;4999572;28;20053;-64
2023/12/19 02:45:17;;;;;;;4.53;1.50;;;;;;;5.46;100.00;100645.38;5012923;28;20499;-64
2023/12/19 02:47:43;;;;;;;3.83;1.42;;;;;;;5.44;100.00;100648.91;5011357;28;20046;-64
2023/12/19 02:50:10;;;;;;;5.22;1.38;;;;;;;5.35;100.00;100642.13;5010218;28;20053;-64
2023/12/19 02:52:37;;;;;;;5.60;1.45;;;;;;;5.34;100.00;100640.41;5013192;28;20050;-64
2023/12/19 02:55:04;;;;;;;5.13;1.50;;;;;;;5.32;100.00;100644.78;5008283;28;20045;-64
2023/12/19 02:57:31;;;;;;;6.30;1.60;;;;;;;5.32;100.00;100637.84;5003723;28;20050;-64
2023/12/19 02:59:58;;;;;;;4.07;1.30;;;;;;;5.41;100.00;100643.75;5008655;28;20046;-64
2023/12/19 03:02:24;;;;;;;4.10;1.35;;;;;;;5.31;100.00;100617.09;5007328;28;20050;-64
2023/12/19 03:04:51;;;;;;;4.72;1.33;;;;;;;5.38;100.00;100617.84;5009855;28;20085;-64
2023/12/19 03:07:18;;;;;;;5.93;1.30;;;;;;;5.42;100.00;100615.19;4997572;28;20057;-64
2023/12/19 03:09:44;;;;;;;5.80;1.42;;;;;;;5.42;100.00;100612.59;5001960;28;20740;-64
2023/12/19 03:12:11;;;;;;;5.38;1.50;;;;;;;5.23;100.00;100599.06;5012601;28;20049;-64
2023/12/19 03:14:38;;;;;;;2.05;1.10;;;;;;;5.21;100.00;100600.00;5012481;28;20053;-64
2023/12/19 03:17:05;;;;;;;3.33;1.20;;;;;;;5.26;100.00;100601.63;5011563;28;20092;-64
2023/12/19 03:19:32;;;;;;;4.07;1.85;;;;;;;5.27;100.00;100605.06;4994071;28;20065;-64
2023/12/19 03:21:59;;;;;;;3.03;1.50;;;;;;;5.27;100.00;100586.88;5009336;28;20085;-64
2023/12/19 03:24:28;;;;;;;5.78;1.30;;;;;;;5.24;100.00;100592.13;5012363;28;20052;-65
2023/12/19 03:26:55;;;;;;;3.17;1.30;;;;;;;5.23;100.00;100587.84;5009224;28;20477;-64
2023/12/19 03:29:21;;;;;;;5.15;1.40;;;;;;;5.22;100.00;100591.31;5008499;28;20053;-64
2023/12/19 03:31:49;;;;;;;3.10;1.20;;;;;;;5.18;100.00;100581.88;5010575;28;20439;-64
2023/12/19 03:34:16;;;;;;;4.30;1.63;;;;;;;5.29;100.00;100582.50;5011600;28;20073;-64
2023/12/19 03:36:43;;;;;;;4.05;1.60;;;;;;;5.20;100.00;100591.31;5009604;28;20133;-64
2023/12/19 03:39:09;;;;;;;3.35;1.50;;;;;;;5.16;100.00;100589.69;5009349;28;20061;-64
2023/12/19 03:41:36;;;;;;;5.03;1.60;;;;;;;5.12;100.00;100586.28;5004765;28;20068;-64
2023/12/19 03:44:03;;;;;;;5.57;1.50;;;;;;;5.16;100.00;100587.09;4993450;28;20153;-64
2023/12/19 03:46:29;;;;;;;5.55;1.55;;;;;;;5.20;100.00;100595.66;5011537;28;20137;-64
2023/12/19 03:48:56;;;;;;;6.00;1.75;;;;;;;5.20;100.00;100587.88;5005952;28;20050;-65
2023/12/19 03:51:23;;;;;;;8.02;1.38;;;;;;;5.10;100.00;100590.66;5010089;28;20053;-64
2023/12/19 03:53:49;;;;;;;5.20;1.58;;;;;;;5.07;100.00;100575.13;5008907;28;20050;-64
2023/12/19 03:56:16;;;;;;;5.30;1.35;;;;;;;4.93;100.00;100582.28;5011119;28;20053;-64
2023/12/19 03:58:43;;;;;;;4.60;1.40;;;;;;;4.83;100.00;100581.56;5003928;28;20050;-64
2023/12/19 04:01:11;;;;;;;6.93;1.70;;;;;;;4.78;100.00;100587.72;5006516;28;20054;-64
2023/12/19 04:03:37;;;;;;;5.82;1.55;;;;;;;4.74;100.00;100584.31;4996646;28;20109;-64
2023/12/19 04:06:05;;;;;;;5.25;1.58;;;;;;;4.77;100.00;100575.66;5008289;28;20422;-64
2023/12/19 04:08:32;;;;;;;6.03;1.58;;;;;;;4.79;100.00;100559.16;5004459;28;20049;-64
2023/12/19 04:10:58;;;;;;;13.38;1.92;;;;;;;4.89;100.00;100563.31;5008471;28;20132;-64
2023/12/19 04:13:25;;;;;;;8.10;1.70;;;;;;;4.92;100.00;100559.81;5009046;28;20054;-64
2023/12/19 04:15:52;;;;;;;4.97;1.52;;;;;;;4.82;100.00;100560.88;5010302;28;20054;-64
2023/12/19 04:18:18;;;;;;;6.57;1.65;;;;;;;4.77;100.00;100555.75;5001261;28;20472;-64
2023/12/19 04:20:45;;;;;;;6.22;1.52;;;;;;;4.73;100.00;100538.53;5000360;28;20058;-64
2023/12/19 04:23:12;;;;;;;5.65;1.60;;;;;;;4.83;100.00;100553.03;4997099;28;20074;-64
2023/12/19 04:25:38;;;;;;;7.65;1.50;;;;;;;4.73;100.00;100534.19;5010525;28;20468;-64
2023/12/19 04:28:05;;;;;;;6.47;1.80;;;;;;;4.88;100.00;100534.81;5004705;28;20046;-64
2023/12/19 04:30:33;;;;;;;6.05;2.22;;;;;;;4.75;100.00;100542.78;4987442;28;20582;-64
2023/12/19 04:33:00;;;;;;;6.13;1.55;;;;;;;4.74;100.00;100546.25;5010189;28;20132;-64
2023/12/19 04:35:26;;;;;;;13.45;1.75;;;;;;;4.64;100.00;100549.91;5009465;28;20049;-64
2023/12/19 04:37:53;;;;;;;9.02;1.90;;;;;;;4.56;100.00;100546.56;4998645;28;20069;-64
2023/12/19 04:40:20;;;;;;;9.60;1.70;;;;;;;4.51;100.00;100548.38;4999937;28;20060;-64
2023/12/19 04:42:46;;;;;;;6.68;1.67;;;;;;;4.58;100.00;100547.41;5001093;28;20054;-64
2023/12/19 04:45:13;;;;;;;8.27;1.90;;;;;;;4.60;100.00;100555.16;5010084;28;20313;-64
2023/12/19 04:47:40;;;;;;;4.07;1.35;;;;;;;4.63;100.00;100558.56;5009672;28;20057;-64
2023/12/19 04:50:08;;;;;;;5.95;1.75;;;;;;;4.67;100.00;100544.66;5008246;28;20049;-64
2023/12/19 04:52:35;;;;;;;3.65;1.45;;;;;;;4.63;100.00;100558.56;5011340;28;20049;-64
2023/12/19 04:55:02;;;;;;;6.85;1.95;;;;;;;4.47;100.00;100552.75;5010116;28;20052;-64
2023/12/19 04:57:29;;;;;;;6.43;1.65;;;;;;;4.34;100.00;100541.72;5009235;28;20062;-63
2023/12/19 04:59:56;;;;;;;4.70;1.48;;;;;;;4.41;100.00;100539.91;5008505;28;20100;-64
2023/12/19 05:02:23;;;;;;;5.13;1.60;;;;;;;4.38;100.00;100535.59;5010540;28;20042;-64
2023/12/19 05:04:50;;;;;;;5.93;1.45;;;;;;;4.46;100.00;100539.81;5009147;28;20500;-65
2023/12/19 05:07:16;;;;;;;5.22;1.65;;;;;;;4.47;100.00;100544.13;5006241;28;20054;-64
2023/12/19 05:09:43;;;;;;;5.03;1.83;;;;;;;4.44;100.00;100532.06;5009458;28;20133;-63
2023/12/19 05:12:10;;;;;;;5.00;1.55;;;;;;;4.17;100.00;100510.84;5008225;28;20322;-64
2023/12/19 05:14:37;;;;;;;6.50;1.95;;;;;;;4.27;100.00;100536.66;4991677;28;20500;-64
2023/12/19 05:17:03;;;;;;;6.65;1.40;;;;;;;4.15;100.00;100537.69;5009627;28;20061;-64
2023/12/19 05:19:30;;;;;;;6.15;1.50;;;;;;;4.21;100.00;100539.31;5009261;28;20037;-64
2023/12/19 05:21:59;;;;;;;8.65;2.25;;;;;;;4.17;100.00;100529.00;5002784;28;20045;-64
2023/12/19 05:24:27;;;;;;;5.10;1.40;;;;;;;4.17;100.00;100517.78;5009978;28;20137;-64
2023/12/19 05:26:59;;;;;;;3.78;1.20;;;;;;;4.26;100.00;100512.47;5002063;28;20407;-64
2023/12/19 05:29:28;;;;;;;9.60;1.85;;;;;;;4.26;100.00;100519.38;5009803;28;20046;-64
2023/12/19 05:31:55;;;;;;;15.40;2.45;;;;;;;4.23;100.00;100520.28;4991005;28;20491;-64
2023/12/19 05:34:22;;;;;;;6.53;1.92;;;;;;;4.23;100.00;100511.66;5010052;28;20412;-64
2023/12/19 05:36:49;;;;;;;5.07;1.70;;;;;;;4.35;100.00;100507.13;5009103;28;20133;-64
2023/12/19 05:39:17;;;;;;;5.63;1.95;;;;;;;4.30;100.00;100500.31;5009052;28;20077;-64
2023/12/19 05:41:44;;;;;;;9.68;1.75;;;;;;;4.31;100.00;100500.28;4999242;28;20548;-64
2023/12/19 05:44:11;;;;;;;7.30;1.75;;;;;;;4.35;100.00;100498.50;5009974;28;20506;-64
2023/12/19 05:46:39;;;;;;;9.55;1.98;;;;;;;4.33;100.00;100490.75;5000670;28;20136;-64
2023/12/19 05:49:06;;;;;;;4.90;1.50;;;;;;;4.33;100.00;100485.56;5008008;28;20148;-64
2023/12/19 05:51:33;;;;;;;5.55;1.60;;;;;;;4.16;100.00;100464.22;5007724;28;20061;-67
2023/12/19 05:54:00;;;;;;;8.68;1.70;;;;;;;4.27;100.00;100498.63;5009953;28;20054;-64
2023/12/19 05:56:27;;;;;;;7.28;1.98;;;;;;;4.23;100.00;100490.91;5003613;28;20053;-64
2023/12/19 05:58:53;;;;;;;7.07;1.77;;;;;;;4.29;100.00;100501.22;5009658;28;20072;-64
2023/12/19 06:01:21;;;;;;;6.72;1.70;;;;;;;4.30;100.00;100502.91;5007924;28;20259;-64
2023/12/19 06:03:48;;;;;;;5.95;1.63;;;;;;;4.31;100.00;100504.63;5003831;28;20148;-64
2023/12/19 06:06:15;;;;;;;8.77;2.08;;;;;;;4.18;100.00;100499.63;4998372;28;20077;-64
2023/12/19 06:08:43;;;;;;;5.22;1.48;;;;;;;4.26;100.00;100488.28;5008205;28;20046;-64
2023/12/19 06:11:10;;;;;;;3.88;1.42;;;;;;;4.17;100.00;100489.28;5006496;28;20045;-64
2023/12/19 06:13:37;;;;;;;5.40;1.50;;;;;;;4.27;100.00;100501.22;5009294;28;20050;-64
2023/12/19 06:16:07;;;;;;;5.70;1.70;;;;;;;4.26;100.00;100499.50;5003318;28;20508;-63
2023/12/19 06:18:33;;;;;;;8.68;1.75;;;;;;;4.18;100.00;100480.63;5007345;28;20050;-63
2023/12/19 06:21:00;;;;;;;8.93;1.95;;;;;;;4.27;100.00;100490.84;5000223;28;20602;-64
2023/12/19 06:23:27;;;;;;;4.70;1.30;;;;;;;4.23;100.00;100490.91;5009598;28;20079;-64
2023/12/19 06:25:54;;;;;;;3.25;1.23;;;;;;;4.17;100.00;100476.31;5001771;28;20412;-65
2023/12/19 06:28:22;;;;;;;5.55;1.50;;;;;;;4.01;100.00;100475.69;5008941;28;20045;-64
2023/12/19 06:30:50;;;;;;;5.65;1.70;;;;;;;3.96;100.00;100473.16;5005848;28;20046;-64
2023/12/19 06:33:16;;;;;;;4.60;1.50;;;;;;;4.00;100.00;100476.56;5009576;28;20077;-64
2023/12/19 06:35:46;;;;;;;5.10;1.98;;;;;;;3.93;100.00;100464.56;5008999;28;20114;-64
2023/12/19 06:38:13;;;;;;;4.38;1.35;;;;;;;3.92;100.00;100462.88;5005934;28;20046;-64
2023/12/19 06:40:39;;;;;;;4.28;1.58;;;;;;;3.92;100.00;100455.97;5002777;28;20054;-64
2023/12/19 06:43:10;;;;;;;3.88;1.42;;;;;;;3.95;100.00;100455.94;5008365;28;20081;-64
2023/12/19 06:45:37;;;;;;;4.90;1.50;;;;;;;3.97;100.00;100451.56;5008519;28;20054;-64
2023/12/19 06:48:05;;;;;;;4.10;1.40;;;;;;;3.98;100.00;100447.25;5006978;28;20108;-64
2023/12/19 06:50:32;;;;;;;7.57;1.60;;;;;;;3.96;100.00;100449.84;4995326;28;20481;-64
2023/12/19 06:52:59;;;;;;;4.63;1.52;;;;;;;3.90;100.00;100430.97;4995348;28;20054;-64
2023/12/19 06:55:27;;;;;;;5.72;1.52;;;;;;;3.88;100.00;100440.47;5004958;28;20076;-64
2023/12/19 06:57:55;;;;;;;5.45;1.60;;;;;;;3.90;100.00;100439.59;5000970;28;20045;-64
2023/12/19 07:00:22;;;;;;;4.90;1.33;;;;;;;3.86;100.00;100424.97;4996408;28;20502;-64
2023/12/19 07:02:48;;;;;;;5.80;1.67;;;;;;;3.84;100.00;100431.03;5002793;28;20492;-64
2023/12/19 07:05:15;;;;;;;6.93;1.80;;;;;;;3.90;100.00;100437.00;4999495;28;20321;-64
2023/12/19 07:07:42;;;;;;;3.92;1.23;;;;;;;3.93;100.00;100436.09;4995754;28;20089;-65
2023/12/19 07:10:10;;;;;;;10.82;1.77;;;;;;;3.77;100.00;100415.63;4999038;28;20093;-64
2023/12/19 07:12:38;;;;;;;9.50;1.85;;;;;;;3.88;100.00;100415.44;5005911;28;20376;-64
2023/12/19 07:15:06;;;;;;;6.60;1.70;;;;;;;3.83;100.00;100422.44;5005628;28;20054;-64
2023/12/19 07:17:33;;;;;;;8.05;1.80;;;;;;;3.79;100.00;100421.63;4999949;28;20055;-63
2023/12/19 07:19:59;;;;;;;6.85;1.92;;;;;;;3.75;100.00;100406.13;4999182;28;20121;-64
2023/12/19 07:22:26;;;;;;;11.68;2.45;;;;;;;3.86;100.00;100405.97;5003375;28;20117;-64
2023/12/19 07:24:53;;;;;;;12.68;3.47;;;;;;;3.84;100.00;100393.03;5011959;28;20157;-64
2023/12/19 07:27:19;;;;;;;8.70;2.08;;;;;;;3.96;100.00;100397.19;5007272;28;20093;-64
2023/12/19 07:29:46;;;;;;;7.20;1.75;;;;;;;3.92;100.00;100386.03;5011589;28;20049;-64
2023/12/19 07:32:13;;;;;;;8.00;1.95;;;;;;;3.99;100.00;100390.22;5010091;28;20069;-63
2023/12/19 07:34:40;;;;;;;8.63;1.77;;;;;;;3.99;100.00;100394.56;5003200;28;20056;-63
2023/12/19 07:37:07;;;;;;;10.68;2.03;;;;;;;3.97;100.00;100393.72;5000560;28;20050;-63
2023/12/19 07:39:33;;;;;;;7.85;1.88;;;;;;;4.09;100.00;100388.34;5006537;28;20124;-63
2023/12/19 07:42:00;;;;;;;15.32;2.78;;;;;;;4.12;100.00;100390.88;5005662;28;20137;-63
2023/12/19 07:44:27;;;;;;;8.65;2.13;;;;;;;4.07;100.00;100381.47;5004318;28;20053;-64
2023/12/19 07:46:54;;;;;;;8.23;2.00;;;;;;;4.07;100.00;100386.66;5001514;28;20057;-63
2023/12/19 07:49:20;;;;;;;9.30;1.77;;;;;;;4.13;100.00;100394.34;5008241;28;20502;-63
2023/12/19 07:51:48;;;;;;;9.57;1.85;;;;;;;4.05;100.00;100393.59;5009828;28;20050;-64
2023/12/19 07:54:15;;;;;;;6.75;1.90;;;;;;;4.14;100.00;100383.97;5000780;28;20396;-63
2023/12/19 07:56:42;;;;;;;9.38;1.92;;;;;;;4.25;100.00;100382.88;5001921;28;20406;-63
2023/12/19 07:59:10;;;;;;;8.63;1.75;;;;;;;4.30;100.00;100381.09;5007612;28;20054;-63
2023/12/19 08:01:37;;;;;;;6.43;1.80;;;;;;;4.24;100.00;100369.09;5001912;28;20050;-63
2023/12/19 08:04:04;;;;;;;9.48;2.15;;;;;;;4.10;100.00;100366.72;5000956;28;20065;-63
2023/12/19 08:06:31;;;;;;;10.20;2.53;;;;;;;4.07;100.00;100356.44;5002503;28;20082;-63
2023/12/19 08:08:58;;;;;;;11.68;2.88;;;;;;;3.98;100.00;100344.50;5009972;28;20100;-63
2023/12/19 08:11:25;;;;;;;8.88;1.92;;;;;;;4.13;100.00;100350.28;5003326;28;20129;-65
2023/12/19 08:13:52;;;;;;;12.80;2.15;;;;;;;4.18;100.00;100345.88;5009531;28;20060;-64
2023/12/19 08:16:20;;;;;;;11.52;2.30;;;;;;;3.99;100.00;100346.19;5004898;28;20126;-65
2023/12/19 08:18:50;;;;;;;13.43;2.83;;;;;;;4.11;100.00;100333.94;5004869;28;20050;-65
2023/12/19 08:21:18;;;;;;;11.70;1.88;;;;;;;4.21;100.00;100316.47;5000188;28;20049;-63
2023/12/19 08:23:47;;;;;;;6.45;1.88;;;;;;;4.13;100.00;100312.28;5001437;28;20423;-68
2023/12/19 08:26:14;;;;;;;8.82;2.38;;;;;;;4.07;100.00;100312.41;5007254;28;20484;-63
2023/12/19 08:28:41;;;;;;;10.13;2.22;;;;;;;4.18;100.00;100317.38;5010933;28;20503;-63
2023/12/19 08:31:08;;;;;;;9.52;3.60;;;;;;;4.12;100.00;100309.69;5007611;28;20108;-62
2023/12/19 08:33:36;;;;;;;8.02;1.80;;;;;;;3.90;100.00;100310.09;5003034;28;20141;-65
2023/12/19 08:36:04;;;;;;;8.35;2.08;;;;;;;3.80;100.00;100298.16;4995281;28;20050;-65
2023/12/19 08:38:31;;;;;;;7.90;2.45;;;;;;;3.80;100.00;100300.75;5001360;28;20071;-65
2023/12/19 08:40:58;;;;;;;6.32;1.80;;;;;;;3.94;100.00;100322.09;5000144;28;20056;-63
2023/12/19 08:43:24;;;;;;;7.90;1.85;;;;;;;3.77;100.00;100311.16;5005737;28;20050;-63
2023/12/19 08:45:51;;;;;;;7.00;2.05;;;;;;;3.85;100.00;100311.03;5010188;28;20046;-63
2023/12/19 08:48:18;;;;;;;5.53;1.75;;;;;;;3.97;100.00;100308.25;4995808;28;20053;-63
2023/12/19 08:50:45;;;;;;;8.73;1.80;;;;;;;3.90;100.00;100304.06;5010429;28;20078;-63
2023/12/19 08:53:12;;;;;;;5.15;1.65;;;;;;;4.01;100.00;100309.06;5004116;28;20060;-63
2023/12/19 08:55:42;;;;;;;14.20;2.72;;;;;;;3.88;100.00;100317.03;5007526;28;20053;-63
2023/12/19 08:58:09;;;;;;;9.00;3.33;;;;;;;3.71;100.00;100285.38;5003451;28;20058;-63
2023/12/19 09:00:36;;;;;;;7.53;1.85;;;;;;;3.97;100.00;100292.72;5006634;28;20120;-64
2023/12/19 09:03:05;;;;;;;9.30;2.22;;;;;;;4.04;100.00;100275.28;5006673;28;20160;-65
2023/12/19 09:05:33;;;;;;;5.97;1.65;;;;;;;4.24;100.00;100288.75;5005090;28;20119;-64
2023/12/19 09:08:00;;;;;;;4.40;1.63;;;;;;;4.27;100.00;100285.25;5004386;28;20054;-64
2023/12/19 09:10:27;;;;;;;5.80;1.60;;;;;;;4.29;100.00;100293.84;5001205;28;20053;-64
2023/12/19 09:12:54;;;;;;;10.35;1.80;;;;;;;4.25;100.00;100290.47;5005553;28;20448;-64
2023/12/19 09:15:21;;;;;;;5.72;1.50;;;;;;;4.18;100.00;100292.31;4993477;28;20054;-64
2023/12/19 09:17:47;;;;;;;6.35;2.42;;;;;;;4.27;100.00;100303.41;5007035;28;20140;-64
2023/12/19 09:20:15;;;;;;;4.28;1.67;;;;;;;4.23;100.00;100301.72;5005106;28;20058;-64
2023/12/19 09:22:42;;;;;;;6.63;1.80;;;;;;;4.18;100.00;100288.88;5008492;28;20130;-64
2023/12/19 09:25:14;;;;;;;5.05;1.70;;;;;;;4.29;100.00;100283.50;5006454;28;20084;-64
2023/12/19 09:27:42;;;;;;;6.75;1.85;;;;;;;4.18;100.00;100275.91;5001438;28;20294;-64
2023/12/19 09:30:10;;;;;;;7.45;2.05;;;;;;;4.23;100.00;100284.44;5001286;28;20053;-64
2023/12/19 09:32:38;;;;;;;9.48;2.63;;;;;;;4.32;100.00;100283.41;4998020;28;20050;-64
2023/12/19 09:35:06;;;;;;;14.52;2.20;;;;;;;4.19;100.00;100265.50;4995748;28;20054;-64
2023/12/19 09:37:34;;;;;;;8.70;2.28;;;;;;;4.45;100.00;100279.72;4995511;28;20504;-64
2023/12/19 09:40:01;;;;;;;3.83;1.65;;;;;;;4.46;100.00;100275.38;4995024;28;20443;-64
2023/12/19 09:42:28;;;;;;;11.98;1.80;;;;;;;4.41;100.00;100249.56;5002479;28;20042;-64
2023/12/19 09:44:54;;;;;;;4.05;1.52;;;;;;;4.73;100.00;100284.34;4996318;28;20077;-65
2023/12/19 09:47:26;;;;;;;8.98;2.15;;;;;;;4.70;100.00;100282.66;5003820;28;20053;-64
2023/12/19 09:49:56;;;;;;;8.05;1.77;;;;;;;4.65;100.00;100284.50;4998146;28;20053;-64
2023/12/19 09:52:27;;;;;;;7.18;1.80;;;;;;;4.77;100.00;100282.53;4998689;28;20539;-64
2023/12/19 09:54:54;;;;;;;9.05;1.92;;;;;;;4.68;100.00;100281.00;5008251;28;20064;-64
2023/12/19 09:57:23;;;;;;;7.13;1.70;;;;;;;4.61;100.00;100282.00;5006462;28;20057;-64
2023/12/19 09:59:51;;;;;;;6.07;1.88;;;;;;;4.54;100.00;100274.34;5003473;28;20050;-64
2023/12/19 10:02:25;;;;;;;6.15;1.90;;;;;;;4.70;100.00;100285.25;5004912;28;20188;-64
2023/12/19 10:04:52;;;;;;;6.28;1.80;;;;;;;4.69;100.00;100285.28;5006643;28;20049;-64
2023/12/19 10:07:20;;;;;;;8.95;2.00;;;;;;;4.59;100.00;100276.00;5008381;28;20061;-64
2023/12/19 10:09:56;;;;;;;9.80;2.50;;;;;;;4.44;100.00;100272.81;5004912;28;20103;-64
2023/12/19 10:12:27;;;;;;;13.45;3.33;;;;;;;4.53;100.00;100277.84;5000350;28;20166;-64
2023/12/19 10:15:12;;;;;;;11.00;2.58;;;;;;;4.71;100.00;100280.91;5008372;28;20432;-64
2023/12/19 10:18:03;;;;;;;8.63;2.05;;;;;;;4.85;100.00;100285.81;5006135;28;20064;-65
2023/12/19 10:20:31;;;;;;;9.32;2.25;;;;;;;4.85;100.00;100273.72;4996811;28;20050;-64
2023/12/19 10:23:03;;;;;;;6.88;1.92;;;;;;;4.92;100.00;100277.88;4997709;28;20080;-64
2023/12/19 10:25:31;;;;;;;6.15;1.90;;;;;;;4.97;100.00;100266.53;5004427;28;20054;-64
2023/12/19 10:28:10;;;;;;;5.85;1.70;;;;;;;5.08;100.00;100273.22;5005457;28;20054;-64
2023/12/19 10:30:38;;;;;;;3.80;1.27;;;;;;;5.07;100.00;100274.09;4986703;28;20054;-64
2023/12/19 10:33:04;;;;;;;7.13;1.83;;;;;;;5.20;100.00;100271.22;5008075;28;20104;-64
2023/12/19 10:35:39;;;;;;;2.63;1.40;;;;;;;5.31;100.00;100279.59;5006364;28;20085;-65
2023/12/19 10:38:06;;;;;;;4.60;1.52;;;;;;;5.26;100.00;100268.50;4999420;28;20054;-64
2023/12/19 10:40:36;;;;;;;4.32;1.50;;;;;;;5.41;100.00;100272.47;4997636;28;20050;-64
2023/12/19 10:43:03;;;;;;;5.82;1.40;;;;;;;5.72;100.00;100272.59;4997903;28;20053;-64
2023/12/19 10:45:31;;;;;;;4.65;1.30;;;;;;;5.92;100.00;100266.88;5004275;28;20149;-64
2023/12/19 10:47:58;;;;;;;5.30;1.67;;;;;;;5.97;100.00;100266.78;4996051;28;20058;-64
2023/12/19 10:50:27;;;;;;;2.47;1.17;;;;;;;5.95;100.00;100256.41;4991303;28;20047;-64
2023/12/19 10:53:02;;;;;;;6.05;1.50;;;;;;;5.93;100.00;100259.91;5000796;28;20403;-70
2023/12/19 10:55:46;;;;;;;6.28;1.42;;;;;;;6.35;100.00;100250.13;5000702;28;20045;-65
2023/12/19 10:58:18;;;;;;;6.78;1.58;;;;;;;6.53;100.00;100243.56;5006989;28;20050;-65
2023/12/19 11:00:49;;;;;;;5.07;1.30;;;;;;;6.84;100.00;100247.88;5006177;28;20128;-65
2023/12/19 11:03:40;;;;;;;4.70;1.40;;;;;;;6.43;100.00;100253.38;5008471;28;20068;-64
2023/12/19 11:06:12;;;;;;;3.00;1.20;;;;;;;6.33;100.00;100241.53;5011354;28;20522;-64
2023/12/19 11:08:45;;;;;;;5.40;1.55;;;;;;;6.36;100.00;100238.00;5008871;28;20266;-65
2023/12/19 11:11:19;;;;;;;3.20;1.40;;;;;;;6.13;100.00;100243.84;5003837;28;20052;-64
2023/12/19 11:13:47;;;;;;;4.60;1.40;;;;;;;6.16;100.00;100246.34;4990502;28;20050;-64
2023/12/19 11:16:19;;;;;;;4.88;1.40;;;;;;;6.61;100.00;100241.59;5011283;28;20078;-64
2023/12/19 11:18:53;;;;;;;3.95;1.33;;;;;;;6.83;100.00;100239.22;4992161;28;20053;-64
2023/12/19 11:21:29;;;;;;;6.68;1.60;;;;;;;6.88;100.00;100235.63;5003312;28;20050;-64
2023/12/19 11:24:11;;;;;;;6.40;1.80;;;;;;;6.53;100.00;100240.13;4993265;28;20448;-64
2023/12/19 11:26:48;;;;;;;5.53;1.80;;;;;;;6.57;100.00;100221.78;5009189;28;20050;-64